sensor_id;sensor_type;location;lat;lon;timestamp;P1;durP1;ratioP1;P2;durP2;ratioP2
72413;SDS011;60995;52.154;4.498;2023-05-10T00:00:56;105.65;;;54.63;;
72413;SDS011;60995;52.154;4.498;2023-05-10T00:03:13;108.82;;;55.97;;
72413;SDS011;60995;52.154;4.498;2023-05-10T00:05:30;110.47;;;56.50;;
72413;SDS011;60995;52.154;4.498;2023-05-10T00:07:47;114.32;;;57.05;;
72413;SDS011;60995;52.154;4.498;2023-05-10T00:10:04;115.95;;;54.70;;
72413;SDS011;60995;52.154;4.498;2023-05-10T00:12:21;104.38;;;54.40;;
72413;SDS011;60995;52.154;4.498;2023-05-10T00:14:37;112.03;;;56.28;;
72413;SDS011;60995;52.154;4.498;2023-05-10T00:16:57;130.05;;;58.28;;
72413;SDS011;60995;52.154;4.498;2023-05-10T00:19:14;127.28;;;58.63;;
72413;SDS011;60995;52.154;4.498;2023-05-10T00:21:30;131.20;;;61.42;;
72413;SDS011;60995;52.154;4.498;2023-05-10T00:23:48;141.68;;;62.28;;
72413;SDS011;60995;52.154;4.498;2023-05-10T00:26:04;128.35;;;58.65;;
72413;SDS011;60995;52.154;4.498;2023-05-10T00:28:20;145.43;;;60.83;;
72413;SDS011;60995;52.154;4.498;2023-05-10T00:30:38;152.18;;;61.65;;
72413;SDS011;60995;52.154;4.498;2023-05-10T00:32:54;122.30;;;56.08;;
72413;SDS011;60995;52.154;4.498;2023-05-10T00:35:10;143.05;;;58.50;;
72413;SDS011;60995;52.154;4.498;2023-05-10T00:37:27;144.52;;;60.70;;
72413;SDS011;60995;52.154;4.498;2023-05-10T00:39:43;135.18;;;58.25;;
72413;SDS011;60995;52.154;4.498;2023-05-10T00:42:00;146.00;;;60.83;;
72413;SDS011;60995;52.154;4.498;2023-05-10T00:44:16;143.95;;;59.60;;
72413;SDS011;60995;52.154;4.498;2023-05-10T00:46:34;141.57;;;57.13;;
72413;SDS011;60995;52.154;4.498;2023-05-10T00:48:50;124.35;;;57.47;;
72413;SDS011;60995;52.154;4.498;2023-05-10T00:51:08;138.25;;;57.13;;
72413;SDS011;60995;52.154;4.498;2023-05-10T00:53:24;148.18;;;60.40;;
72413;SDS011;60995;52.154;4.498;2023-05-10T00:55:41;151.43;;;61.58;;
72413;SDS011;60995;52.154;4.498;2023-05-10T00:57:58;159.68;;;62.22;;
72413;SDS011;60995;52.154;4.498;2023-05-10T01:00:14;188.38;;;66.50;;
72413;SDS011;60995;52.154;4.498;2023-05-10T01:02:34;167.52;;;62.95;;
72413;SDS011;60995;52.154;4.498;2023-05-10T01:04:51;158.52;;;63.00;;
72413;SDS011;60995;52.154;4.498;2023-05-10T01:07:07;175.50;;;62.42;;
72413;SDS011;60995;52.154;4.498;2023-05-10T01:09:24;156.82;;;61.88;;
72413;SDS011;60995;52.154;4.498;2023-05-10T01:11:42;172.63;;;64.15;;
72413;SDS011;60995;52.154;4.498;2023-05-10T01:13:58;174.18;;;64.78;;
72413;SDS011;60995;52.154;4.498;2023-05-10T01:16:15;165.77;;;62.00;;
72413;SDS011;60995;52.154;4.498;2023-05-10T01:18:32;160.70;;;62.28;;
72413;SDS011;60995;52.154;4.498;2023-05-10T01:20:55;169.48;;;67.68;;
72413;SDS011;60995;52.154;4.498;2023-05-10T01:23:30;162.38;;;67.22;;
72413;SDS011;60995;52.154;4.498;2023-05-10T01:26:16;141.38;;;61.42;;
72413;SDS011;60995;52.154;4.498;2023-05-10T01:28:54;145.77;;;62.45;;
72413;SDS011;60995;52.154;4.498;2023-05-10T01:35:23;143.43;;;59.53;;
72413;SDS011;60995;52.154;4.498;2023-05-10T01:37:46;150.18;;;60.22;;
72413;SDS011;60995;52.154;4.498;2023-05-10T01:40:26;164.73;;;60.70;;
72413;SDS011;60995;52.154;4.498;2023-05-10T01:43:32;115.03;;;53.72;;
72413;SDS011;60995;52.154;4.498;2023-05-10T01:46:24;147.60;;;57.92;;
72413;SDS011;60995;52.154;4.498;2023-05-10T01:48:54;148.13;;;54.90;;
72413;SDS011;60995;52.154;4.498;2023-05-10T01:51:19;122.75;;;52.67;;
72413;SDS011;60995;52.154;4.498;2023-05-10T01:53:41;121.75;;;52.25;;
72413;SDS011;60995;52.154;4.498;2023-05-10T01:55:59;140.63;;;54.75;;
72413;SDS011;60995;52.154;4.498;2023-05-10T01:58:36;126.43;;;54.80;;
72413;SDS011;60995;52.154;4.498;2023-05-10T02:00:56;120.18;;;52.17;;
72413;SDS011;60995;52.154;4.498;2023-05-10T02:03:17;125.10;;;53.97;;
72413;SDS011;60995;52.154;4.498;2023-05-10T02:05:38;120.97;;;52.03;;
72413;SDS011;60995;52.154;4.498;2023-05-10T02:07:57;125.03;;;52.67;;
72413;SDS011;60995;52.154;4.498;2023-05-10T02:10:17;120.82;;;51.88;;
72413;SDS011;60995;52.154;4.498;2023-05-10T02:12:35;119.82;;;51.92;;
72413;SDS011;60995;52.154;4.498;2023-05-10T02:14:56;125.72;;;52.30;;
72413;SDS011;60995;52.154;4.498;2023-05-10T02:17:17;132.20;;;54.05;;
72413;SDS011;60995;52.154;4.498;2023-05-10T02:19:36;132.35;;;54.25;;
72413;SDS011;60995;52.154;4.498;2023-05-10T02:21:56;124.65;;;52.60;;
72413;SDS011;60995;52.154;4.498;2023-05-10T02:24:15;130.35;;;52.83;;
72413;SDS011;60995;52.154;4.498;2023-05-10T02:26:33;131.48;;;52.85;;
72413;SDS011;60995;52.154;4.498;2023-05-10T02:28:53;111.28;;;50.80;;
72413;SDS011;60995;52.154;4.498;2023-05-10T02:31:11;132.02;;;54.03;;
72413;SDS011;60995;52.154;4.498;2023-05-10T02:33:29;138.15;;;53.78;;
72413;SDS011;60995;52.154;4.498;2023-05-10T02:35:48;115.45;;;52.03;;
72413;SDS011;60995;52.154;4.498;2023-05-10T02:38:06;120.43;;;53.65;;
72413;SDS011;60995;52.154;4.498;2023-05-10T02:40:24;120.13;;;54.40;;
72413;SDS011;60995;52.154;4.498;2023-05-10T02:42:43;124.95;;;53.63;;
72413;SDS011;60995;52.154;4.498;2023-05-10T02:45:07;130.48;;;56.58;;
72413;SDS011;60995;52.154;4.498;2023-05-10T02:47:29;140.05;;;57.22;;
72413;SDS011;60995;52.154;4.498;2023-05-10T02:49:45;130.45;;;57.90;;
72413;SDS011;60995;52.154;4.498;2023-05-10T02:52:04;134.60;;;59.33;;
72413;SDS011;60995;52.154;4.498;2023-05-10T02:54:26;134.27;;;58.83;;
72413;SDS011;60995;52.154;4.498;2023-05-10T02:56:48;132.13;;;58.83;;
72413;SDS011;60995;52.154;4.498;2023-05-10T02:59:12;138.25;;;60.00;;
72413;SDS011;60995;52.154;4.498;2023-05-10T03:01:28;127.50;;;57.33;;
72413;SDS011;60995;52.154;4.498;2023-05-10T03:03:46;133.75;;;61.50;;
72413;SDS011;60995;52.154;4.498;2023-05-10T03:06:02;136.95;;;61.70;;
72413;SDS011;60995;52.154;4.498;2023-05-10T03:08:20;133.77;;;61.42;;
72413;SDS011;60995;52.154;4.498;2023-05-10T03:10:38;112.38;;;55.08;;
72413;SDS011;60995;52.154;4.498;2023-05-10T03:13:26;115.97;;;55.08;;
72413;SDS011;60995;52.154;4.498;2023-05-10T03:15:58;95.80;;;46.65;;
72413;SDS011;60995;52.154;4.498;2023-05-10T03:18:33;87.60;;;44.28;;
72413;SDS011;60995;52.154;4.498;2023-05-10T03:21:02;96.32;;;48.72;;
72413;SDS011;60995;52.154;4.498;2023-05-10T03:23:27;95.20;;;47.67;;
72413;SDS011;60995;52.154;4.498;2023-05-10T03:25:54;103.53;;;52.67;;
72413;SDS011;60995;52.154;4.498;2023-05-10T03:28:11;103.10;;;52.70;;
72413;SDS011;60995;52.154;4.498;2023-05-10T03:30:30;103.15;;;54.63;;
72413;SDS011;60995;52.154;4.498;2023-05-10T03:32:48;105.20;;;54.88;;
72413;SDS011;60995;52.154;4.498;2023-05-10T03:35:08;100.97;;;54.50;;
72413;SDS011;60995;52.154;4.498;2023-05-10T03:37:27;95.78;;;50.90;;
72413;SDS011;60995;52.154;4.498;2023-05-10T03:39:44;97.13;;;51.78;;
72413;SDS011;60995;52.154;4.498;2023-05-10T03:42:00;96.10;;;48.97;;
72413;SDS011;60995;52.154;4.498;2023-05-10T03:44:17;92.78;;;44.53;;
72413;SDS011;60995;52.154;4.498;2023-05-10T03:46:33;99.43;;;46.05;;
72413;SDS011;60995;52.154;4.498;2023-05-10T03:48:49;90.60;;;41.67;;
72413;SDS011;60995;52.154;4.498;2023-05-10T03:51:06;104.80;;;49.70;;
72413;SDS011;60995;52.154;4.498;2023-05-10T03:53:22;117.43;;;48.75;;
72413;SDS011;60995;52.154;4.498;2023-05-10T03:55:39;86.47;;;40.40;;
72413;SDS011;60995;52.154;4.498;2023-05-10T03:57:55;87.70;;;42.50;;
72413;SDS011;60995;52.154;4.498;2023-05-10T04:00:11;82.65;;;40.58;;
72413;SDS011;60995;52.154;4.498;2023-05-10T04:02:28;84.90;;;41.15;;
72413;SDS011;60995;52.154;4.498;2023-05-10T04:04:45;82.07;;;42.22;;
72413;SDS011;60995;52.154;4.498;2023-05-10T04:07:02;104.93;;;47.63;;
72413;SDS011;60995;52.154;4.498;2023-05-10T04:09:19;96.68;;;45.05;;
72413;SDS011;60995;52.154;4.498;2023-05-10T04:11:36;87.47;;;43.47;;
72413;SDS011;60995;52.154;4.498;2023-05-10T04:13:52;100.20;;;41.67;;
72413;SDS011;60995;52.154;4.498;2023-05-10T04:16:09;105.60;;;44.95;;
72413;SDS011;60995;52.154;4.498;2023-05-10T04:18:25;105.32;;;44.83;;
72413;SDS011;60995;52.154;4.498;2023-05-10T04:20:42;93.82;;;40.13;;
72413;SDS011;60995;52.154;4.498;2023-05-10T04:22:58;95.70;;;39.53;;
72413;SDS011;60995;52.154;4.498;2023-05-10T04:25:14;73.72;;;35.17;;
72413;SDS011;60995;52.154;4.498;2023-05-10T04:27:31;67.97;;;31.23;;
72413;SDS011;60995;52.154;4.498;2023-05-10T04:29:47;57.13;;;26.40;;
72413;SDS011;60995;52.154;4.498;2023-05-10T04:32:04;52.38;;;25.60;;
72413;SDS011;60995;52.154;4.498;2023-05-10T04:34:20;52.20;;;25.10;;
72413;SDS011;60995;52.154;4.498;2023-05-10T04:36:37;60.55;;;27.00;;
72413;SDS011;60995;52.154;4.498;2023-05-10T04:38:53;46.17;;;24.05;;
72413;SDS011;60995;52.154;4.498;2023-05-10T04:41:10;46.63;;;23.95;;
72413;SDS011;60995;52.154;4.498;2023-05-10T04:43:27;42.72;;;22.92;;
72413;SDS011;60995;52.154;4.498;2023-05-10T04:45:43;51.47;;;24.67;;
72413;SDS011;60995;52.154;4.498;2023-05-10T04:47:59;48.85;;;23.92;;
72413;SDS011;60995;52.154;4.498;2023-05-10T04:50:16;52.60;;;27.25;;
72413;SDS011;60995;52.154;4.498;2023-05-10T04:52:33;50.78;;;26.00;;
72413;SDS011;60995;52.154;4.498;2023-05-10T04:54:49;50.45;;;26.83;;
72413;SDS011;60995;52.154;4.498;2023-05-10T04:57:06;52.90;;;26.15;;
72413;SDS011;60995;52.154;4.498;2023-05-10T04:59:22;49.75;;;24.85;;
72413;SDS011;60995;52.154;4.498;2023-05-10T05:01:39;46.20;;;23.42;;
72413;SDS011;60995;52.154;4.498;2023-05-10T05:03:56;44.05;;;22.27;;
72413;SDS011;60995;52.154;4.498;2023-05-10T05:06:12;39.55;;;20.60;;
72413;SDS011;60995;52.154;4.498;2023-05-10T05:08:28;45.33;;;21.10;;
72413;SDS011;60995;52.154;4.498;2023-05-10T05:10:44;45.05;;;22.20;;
72413;SDS011;60995;52.154;4.498;2023-05-10T05:13:01;50.10;;;23.33;;
72413;SDS011;60995;52.154;4.498;2023-05-10T05:15:17;47.63;;;22.38;;
72413;SDS011;60995;52.154;4.498;2023-05-10T05:17:33;46.95;;;22.15;;
72413;SDS011;60995;52.154;4.498;2023-05-10T05:19:50;44.83;;;22.83;;
72413;SDS011;60995;52.154;4.498;2023-05-10T05:22:06;47.55;;;23.52;;
72413;SDS011;60995;52.154;4.498;2023-05-10T05:24:24;49.70;;;22.92;;
72413;SDS011;60995;52.154;4.498;2023-05-10T05:26:41;43.05;;;22.08;;
72413;SDS011;60995;52.154;4.498;2023-05-10T05:28:57;48.45;;;23.35;;
72413;SDS011;60995;52.154;4.498;2023-05-10T05:31:13;43.70;;;21.75;;
72413;SDS011;60995;52.154;4.498;2023-05-10T05:33:30;40.13;;;19.40;;
72413;SDS011;60995;52.154;4.498;2023-05-10T05:35:47;42.05;;;19.77;;
72413;SDS011;60995;52.154;4.498;2023-05-10T05:38:06;37.85;;;18.55;;
72413;SDS011;60995;52.154;4.498;2023-05-10T05:40:22;36.03;;;17.75;;
72413;SDS011;60995;52.154;4.498;2023-05-10T05:42:38;33.38;;;14.90;;
72413;SDS011;60995;52.154;4.498;2023-05-10T05:44:55;29.23;;;12.95;;
72413;SDS011;60995;52.154;4.498;2023-05-10T05:47:11;28.08;;;13.32;;
72413;SDS011;60995;52.154;4.498;2023-05-10T05:49:27;24.00;;;13.02;;
72413;SDS011;60995;52.154;4.498;2023-05-10T05:51:44;27.83;;;13.63;;
72413;SDS011;60995;52.154;4.498;2023-05-10T05:54:01;22.73;;;13.10;;
72413;SDS011;60995;52.154;4.498;2023-05-10T05:56:19;19.40;;;10.70;;
72413;SDS011;60995;52.154;4.498;2023-05-10T05:58:39;19.80;;;9.82;;
72413;SDS011;60995;52.154;4.498;2023-05-10T06:00:56;18.85;;;10.30;;
72413;SDS011;60995;52.154;4.498;2023-05-10T06:03:12;17.17;;;8.90;;
72413;SDS011;60995;52.154;4.498;2023-05-10T06:05:29;14.48;;;7.22;;
72413;SDS011;60995;52.154;4.498;2023-05-10T06:07:45;11.57;;;7.20;;
72413;SDS011;60995;52.154;4.498;2023-05-10T06:10:02;11.45;;;6.63;;
72413;SDS011;60995;52.154;4.498;2023-05-10T06:12:18;15.38;;;7.40;;
72413;SDS011;60995;52.154;4.498;2023-05-10T06:14:34;13.43;;;7.38;;
72413;SDS011;60995;52.154;4.498;2023-05-10T06:16:51;10.55;;;6.63;;
72413;SDS011;60995;52.154;4.498;2023-05-10T06:19:07;12.85;;;7.40;;
72413;SDS011;60995;52.154;4.498;2023-05-10T06:21:23;9.93;;;6.25;;
72413;SDS011;60995;52.154;4.498;2023-05-10T06:23:40;10.02;;;6.57;;
72413;SDS011;60995;52.154;4.498;2023-05-10T06:25:56;10.68;;;6.00;;
72413;SDS011;60995;52.154;4.498;2023-05-10T06:28:12;8.98;;;5.78;;
72413;SDS011;60995;52.154;4.498;2023-05-10T06:30:28;9.60;;;5.90;;
72413;SDS011;60995;52.154;4.498;2023-05-10T06:32:45;10.57;;;6.22;;
72413;SDS011;60995;52.154;4.498;2023-05-10T06:35:01;10.10;;;5.60;;
72413;SDS011;60995;52.154;4.498;2023-05-10T06:37:17;9.20;;;5.00;;
72413;SDS011;60995;52.154;4.498;2023-05-10T06:39:34;10.57;;;5.57;;
72413;SDS011;60995;52.154;4.498;2023-05-10T06:41:50;9.32;;;5.85;;
72413;SDS011;60995;52.154;4.498;2023-05-10T06:44:06;9.60;;;5.90;;
72413;SDS011;60995;52.154;4.498;2023-05-10T06:46:23;9.43;;;6.03;;
72413;SDS011;60995;52.154;4.498;2023-05-10T06:48:39;10.63;;;7.00;;
72413;SDS011;60995;52.154;4.498;2023-05-10T06:50:55;9.80;;;6.10;;
72413;SDS011;60995;52.154;4.498;2023-05-10T06:53:11;12.73;;;6.38;;
72413;SDS011;60995;52.154;4.498;2023-05-10T06:55:28;10.02;;;6.43;;
72413;SDS011;60995;52.154;4.498;2023-05-10T06:57:45;9.48;;;5.57;;
72413;SDS011;60995;52.154;4.498;2023-05-10T07:00:01;10.35;;;6.47;;
72413;SDS011;60995;52.154;4.498;2023-05-10T07:02:20;8.85;;;5.78;;
72413;SDS011;60995;52.154;4.498;2023-05-10T07:04:36;10.70;;;6.75;;
72413;SDS011;60995;52.154;4.498;2023-05-10T07:06:53;9.98;;;5.70;;
72413;SDS011;60995;52.154;4.498;2023-05-10T07:09:09;11.07;;;5.78;;
72413;SDS011;60995;52.154;4.498;2023-05-10T07:11:25;11.98;;;6.22;;
72413;SDS011;60995;52.154;4.498;2023-05-10T07:13:42;12.10;;;5.95;;
72413;SDS011;60995;52.154;4.498;2023-05-10T07:16:00;10.32;;;5.82;;
72413;SDS011;60995;52.154;4.498;2023-05-10T07:18:17;10.80;;;5.47;;
72413;SDS011;60995;52.154;4.498;2023-05-10T07:20:33;10.80;;;5.30;;
72413;SDS011;60995;52.154;4.498;2023-05-10T07:22:50;9.10;;;4.95;;
72413;SDS011;60995;52.154;4.498;2023-05-10T07:25:06;10.63;;;5.93;;
72413;SDS011;60995;52.154;4.498;2023-05-10T07:27:23;10.50;;;5.55;;
72413;SDS011;60995;52.154;4.498;2023-05-10T07:29:39;10.90;;;5.43;;
72413;SDS011;60995;52.154;4.498;2023-05-10T07:31:56;13.00;;;5.47;;
72413;SDS011;60995;52.154;4.498;2023-05-10T07:34:12;10.25;;;4.80;;
72413;SDS011;60995;52.154;4.498;2023-05-10T07:36:28;10.93;;;4.82;;
72413;SDS011;60995;52.154;4.498;2023-05-10T07:38:44;10.68;;;5.40;;
72413;SDS011;60995;52.154;4.498;2023-05-10T07:41:01;10.73;;;5.68;;
72413;SDS011;60995;52.154;4.498;2023-05-10T07:43:17;10.82;;;5.25;;
72413;SDS011;60995;52.154;4.498;2023-05-10T07:45:33;9.07;;;4.13;;
72413;SDS011;60995;52.154;4.498;2023-05-10T07:47:50;8.43;;;4.10;;
72413;SDS011;60995;52.154;4.498;2023-05-10T07:50:06;8.73;;;4.47;;
72413;SDS011;60995;52.154;4.498;2023-05-10T07:52:23;8.25;;;4.50;;
72413;SDS011;60995;52.154;4.498;2023-05-10T07:54:40;8.80;;;5.05;;
72413;SDS011;60995;52.154;4.498;2023-05-10T07:56:56;9.38;;;4.78;;
72413;SDS011;60995;52.154;4.498;2023-05-10T07:59:16;7.72;;;3.88;;
72413;SDS011;60995;52.154;4.498;2023-05-10T08:01:33;6.45;;;3.33;;
72413;SDS011;60995;52.154;4.498;2023-05-10T08:03:50;6.35;;;3.10;;
72413;SDS011;60995;52.154;4.498;2023-05-10T08:06:07;8.00;;;3.53;;
72413;SDS011;60995;52.154;4.498;2023-05-10T08:08:23;5.72;;;2.72;;
72413;SDS011;60995;52.154;4.498;2023-05-10T08:10:40;5.88;;;2.80;;
72413;SDS011;60995;52.154;4.498;2023-05-10T08:12:56;4.28;;;2.40;;
72413;SDS011;60995;52.154;4.498;2023-05-10T08:15:14;4.82;;;2.38;;
72413;SDS011;60995;52.154;4.498;2023-05-10T08:17:30;3.55;;;2.20;;
72413;SDS011;60995;52.154;4.498;2023-05-10T08:19:46;5.18;;;2.17;;
72413;SDS011;60995;52.154;4.498;2023-05-10T08:22:02;4.13;;;2.30;;
72413;SDS011;60995;52.154;4.498;2023-05-10T08:24:19;5.55;;;2.35;;
72413;SDS011;60995;52.154;4.498;2023-05-10T08:26:35;4.13;;;2.22;;
72413;SDS011;60995;52.154;4.498;2023-05-10T08:28:51;4.22;;;2.30;;
72413;SDS011;60995;52.154;4.498;2023-05-10T08:31:07;5.55;;;2.20;;
72413;SDS011;60995;52.154;4.498;2023-05-10T08:33:24;6.63;;;2.90;;
72413;SDS011;60995;52.154;4.498;2023-05-10T08:35:40;5.57;;;2.40;;
72413;SDS011;60995;52.154;4.498;2023-05-10T08:37:57;4.22;;;2.15;;
72413;SDS011;60995;52.154;4.498;2023-05-10T08:40:13;6.03;;;2.70;;
72413;SDS011;60995;52.154;4.498;2023-05-10T08:42:31;10.25;;;2.90;;
72413;SDS011;60995;52.154;4.498;2023-05-10T08:44:55;9.93;;;3.00;;
72413;SDS011;60995;52.154;4.498;2023-05-10T08:47:15;5.97;;;2.72;;
72413;SDS011;60995;52.154;4.498;2023-05-10T08:49:34;7.65;;;3.65;;
72413;SDS011;60995;52.154;4.498;2023-05-10T08:51:51;5.82;;;2.83;;
72413;SDS011;60995;52.154;4.498;2023-05-10T08:54:11;6.97;;;3.20;;
72413;SDS011;60995;52.154;4.498;2023-05-10T08:56:28;5.00;;;2.58;;
72413;SDS011;60995;52.154;4.498;2023-05-10T08:58:50;6.82;;;2.90;;
72413;SDS011;60995;52.154;4.498;2023-05-10T09:01:07;7.60;;;2.85;;
72413;SDS011;60995;52.154;4.498;2023-05-10T09:03:24;7.07;;;3.00;;
72413;SDS011;60995;52.154;4.498;2023-05-10T09:05:41;6.28;;;2.95;;
72413;SDS011;60995;52.154;4.498;2023-05-10T09:07:58;5.40;;;2.70;;
72413;SDS011;60995;52.154;4.498;2023-05-10T09:10:16;6.22;;;2.50;;
72413;SDS011;60995;52.154;4.498;2023-05-10T09:12:33;5.38;;;2.60;;
72413;SDS011;60995;52.154;4.498;2023-05-10T09:14:49;5.22;;;2.35;;
72413;SDS011;60995;52.154;4.498;2023-05-10T09:17:08;6.13;;;2.80;;
72413;SDS011;60995;52.154;4.498;2023-05-10T09:19:25;5.28;;;2.70;;
72413;SDS011;60995;52.154;4.498;2023-05-10T09:21:43;5.43;;;2.75;;
72413;SDS011;60995;52.154;4.498;2023-05-10T09:24:02;5.60;;;3.08;;
72413;SDS011;60995;52.154;4.498;2023-05-10T09:26:23;6.97;;;3.70;;
72413;SDS011;60995;52.154;4.498;2023-05-10T09:28:53;6.55;;;3.35;;
72413;SDS011;60995;52.154;4.498;2023-05-10T09:31:11;6.82;;;3.10;;
72413;SDS011;60995;52.154;4.498;2023-05-10T09:33:28;7.85;;;4.22;;
72413;SDS011;60995;52.154;4.498;2023-05-10T09:35:45;8.55;;;4.90;;
72413;SDS011;60995;52.154;4.498;2023-05-10T09:38:04;10.43;;;5.20;;
72413;SDS011;60995;52.154;4.498;2023-05-10T09:40:22;12.45;;;6.82;;
72413;SDS011;60995;52.154;4.498;2023-05-10T09:42:51;15.30;;;8.07;;
72413;SDS011;60995;52.154;4.498;2023-05-10T09:45:10;14.02;;;7.20;;
72413;SDS011;60995;52.154;4.498;2023-05-10T09:47:26;10.18;;;6.20;;
72413;SDS011;60995;52.154;4.498;2023-05-10T09:49:43;10.52;;;5.45;;
72413;SDS011;60995;52.154;4.498;2023-05-10T09:52:07;9.75;;;5.22;;
72413;SDS011;60995;52.154;4.498;2023-05-10T09:54:23;10.10;;;5.85;;
72413;SDS011;60995;52.154;4.498;2023-05-10T09:56:40;9.93;;;6.13;;
72413;SDS011;60995;52.154;4.498;2023-05-10T09:59:03;10.45;;;5.78;;
72413;SDS011;60995;52.154;4.498;2023-05-10T10:01:20;10.48;;;6.53;;
72413;SDS011;60995;52.154;4.498;2023-05-10T10:03:40;11.48;;;6.20;;
72413;SDS011;60995;52.154;4.498;2023-05-10T10:05:59;11.40;;;6.22;;
72413;SDS011;60995;52.154;4.498;2023-05-10T10:08:15;14.32;;;7.35;;
72413;SDS011;60995;52.154;4.498;2023-05-10T10:10:33;12.65;;;7.40;;
72413;SDS011;60995;52.154;4.498;2023-05-10T10:12:49;13.68;;;7.65;;
72413;SDS011;60995;52.154;4.498;2023-05-10T10:15:07;16.42;;;8.27;;
72413;SDS011;60995;52.154;4.498;2023-05-10T10:17:25;16.67;;;8.38;;
72413;SDS011;60995;52.154;4.498;2023-05-10T10:19:43;15.38;;;8.85;;
72413;SDS011;60995;52.154;4.498;2023-05-10T10:22:01;19.88;;;9.57;;
72413;SDS011;60995;52.154;4.498;2023-05-10T10:24:18;17.10;;;8.95;;
72413;SDS011;60995;52.154;4.498;2023-05-10T10:26:35;20.25;;;11.30;;
72413;SDS011;60995;52.154;4.498;2023-05-10T10:29:13;22.98;;;12.00;;
72413;SDS011;60995;52.154;4.498;2023-05-10T10:32:25;22.38;;;11.18;;
72413;SDS011;60995;52.154;4.498;2023-05-10T10:34:41;19.55;;;10.43;;
72413;SDS011;60995;52.154;4.498;2023-05-10T10:36:58;22.35;;;11.48;;
72413;SDS011;60995;52.154;4.498;2023-05-10T10:41:39;24.65;;;11.32;;
72413;SDS011;60995;52.154;4.498;2023-05-10T10:46:58;23.35;;;12.25;;
72413;SDS011;60995;52.154;4.498;2023-05-10T10:57:13;28.25;;;11.80;;
72413;SDS011;60995;52.154;4.498;2023-05-10T10:59:30;24.70;;;11.07;;
72413;SDS011;60995;52.154;4.498;2023-05-10T11:01:46;28.10;;;11.68;;
72413;SDS011;60995;52.154;4.498;2023-05-10T11:08:49;24.23;;;10.70;;
72413;SDS011;60995;52.154;4.498;2023-05-10T11:11:08;27.85;;;10.63;;
72413;SDS011;60995;52.154;4.498;2023-05-10T11:13:31;23.15;;;9.65;;
72413;SDS011;60995;52.154;4.498;2023-05-10T11:19:10;24.98;;;10.60;;
72413;SDS011;60995;52.154;4.498;2023-05-10T11:21:30;20.08;;;8.90;;
72413;SDS011;60995;52.154;4.498;2023-05-10T11:23:49;19.23;;;8.30;;
72413;SDS011;60995;52.154;4.498;2023-05-10T11:26:12;21.50;;;8.75;;
72413;SDS011;60995;52.154;4.498;2023-05-10T11:28:29;22.67;;;9.35;;
72413;SDS011;60995;52.154;4.498;2023-05-10T11:30:46;21.48;;;7.90;;
72413;SDS011;60995;52.154;4.498;2023-05-10T11:33:03;17.42;;;9.25;;
72413;SDS011;60995;52.154;4.498;2023-05-10T11:35:19;22.67;;;9.00;;
72413;SDS011;60995;52.154;4.498;2023-05-10T11:37:35;18.13;;;8.45;;
72413;SDS011;60995;52.154;4.498;2023-05-10T11:39:54;19.45;;;8.65;;
72413;SDS011;60995;52.154;4.498;2023-05-10T11:42:11;14.48;;;8.02;;
72413;SDS011;60995;52.154;4.498;2023-05-10T11:44:31;12.27;;;6.75;;
72413;SDS011;60995;52.154;4.498;2023-05-10T11:46:48;13.52;;;6.80;;
72413;SDS011;60995;52.154;4.498;2023-05-10T11:49:06;15.15;;;8.23;;
72413;SDS011;60995;52.154;4.498;2023-05-10T11:51:24;17.55;;;7.85;;
72413;SDS011;60995;52.154;4.498;2023-05-10T11:53:41;15.40;;;7.18;;
72413;SDS011;60995;52.154;4.498;2023-05-10T11:56:09;12.73;;;6.47;;
72413;SDS011;60995;52.154;4.498;2023-05-10T11:58:27;13.15;;;5.13;;
72413;SDS011;60995;52.154;4.498;2023-05-10T12:00:43;9.45;;;4.38;;
72413;SDS011;60995;52.154;4.498;2023-05-10T12:03:01;11.20;;;4.30;;
72413;SDS011;60995;52.154;4.498;2023-05-10T12:05:18;9.07;;;3.28;;
72413;SDS011;60995;52.154;4.498;2023-05-10T12:07:35;7.22;;;2.75;;
72413;SDS011;60995;52.154;4.498;2023-05-10T12:12:23;5.78;;;2.85;;
72413;SDS011;60995;52.154;4.498;2023-05-10T12:14:39;7.13;;;3.03;;
72413;SDS011;60995;52.154;4.498;2023-05-10T12:16:56;8.63;;;4.13;;
72413;SDS011;60995;52.154;4.498;2023-05-10T12:19:13;9.70;;;4.43;;
72413;SDS011;60995;52.154;4.498;2023-05-10T12:21:36;13.27;;;6.20;;
72413;SDS011;60995;52.154;4.498;2023-05-10T12:23:54;19.17;;;7.90;;
72413;SDS011;60995;52.154;4.498;2023-05-10T12:26:15;17.98;;;8.40;;
72413;SDS011;60995;52.154;4.498;2023-05-10T12:28:33;16.17;;;8.13;;
72413;SDS011;60995;52.154;4.498;2023-05-10T12:30:49;17.98;;;8.85;;
72413;SDS011;60995;52.154;4.498;2023-05-10T12:33:13;19.42;;;9.73;;
72413;SDS011;60995;52.154;4.498;2023-05-10T12:35:32;20.67;;;8.93;;
72413;SDS011;60995;52.154;4.498;2023-05-10T12:38:01;21.13;;;9.40;;
72413;SDS011;60995;52.154;4.498;2023-05-10T12:41:04;20.88;;;10.02;;
72413;SDS011;60995;52.154;4.498;2023-05-10T12:43:25;26.13;;;9.80;;
72413;SDS011;60995;52.154;4.498;2023-05-10T12:45:42;20.38;;;8.68;;
72413;SDS011;60995;52.154;4.498;2023-05-10T12:48:03;19.30;;;8.68;;
72413;SDS011;60995;52.154;4.498;2023-05-10T12:50:20;20.77;;;8.63;;
72413;SDS011;60995;52.154;4.498;2023-05-10T12:52:36;19.83;;;9.18;;
72413;SDS011;60995;52.154;4.498;2023-05-10T12:54:52;18.20;;;8.77;;
72413;SDS011;60995;52.154;4.498;2023-05-10T12:57:09;23.08;;;9.57;;
72413;SDS011;60995;52.154;4.498;2023-05-10T12:59:26;20.67;;;9.65;;
72413;SDS011;60995;52.154;4.498;2023-05-10T13:01:42;22.67;;;9.63;;
72413;SDS011;60995;52.154;4.498;2023-05-10T13:03:58;20.38;;;10.40;;
72413;SDS011;60995;52.154;4.498;2023-05-10T13:06:15;23.58;;;10.18;;
72413;SDS011;60995;52.154;4.498;2023-05-10T13:08:32;19.98;;;10.85;;
72413;SDS011;60995;52.154;4.498;2023-05-10T13:10:49;18.08;;;9.88;;
72413;SDS011;60995;52.154;4.498;2023-05-10T13:13:05;19.00;;;10.50;;
72413;SDS011;60995;52.154;4.498;2023-05-10T13:15:24;17.92;;;10.55;;
72413;SDS011;60995;52.154;4.498;2023-05-10T13:17:41;18.95;;;9.35;;
72413;SDS011;60995;52.154;4.498;2023-05-10T13:19:58;19.05;;;10.05;;
72413;SDS011;60995;52.154;4.498;2023-05-10T13:22:14;17.88;;;10.18;;
72413;SDS011;60995;52.154;4.498;2023-05-10T13:24:30;18.50;;;9.77;;
72413;SDS011;60995;52.154;4.498;2023-05-10T13:26:47;18.63;;;10.48;;
72413;SDS011;60995;52.154;4.498;2023-05-10T13:29:04;16.58;;;9.85;;
72413;SDS011;60995;52.154;4.498;2023-05-10T13:31:20;16.70;;;9.45;;
72413;SDS011;60995;52.154;4.498;2023-05-10T13:33:37;16.50;;;9.48;;
72413;SDS011;60995;52.154;4.498;2023-05-10T13:35:53;14.90;;;8.68;;
72413;SDS011;60995;52.154;4.498;2023-05-10T13:38:09;16.42;;;8.60;;
72413;SDS011;60995;52.154;4.498;2023-05-10T13:40:25;16.73;;;8.68;;
72413;SDS011;60995;52.154;4.498;2023-05-10T13:42:42;17.05;;;9.55;;
72413;SDS011;60995;52.154;4.498;2023-05-10T13:44:58;17.17;;;8.18;;
72413;SDS011;60995;52.154;4.498;2023-05-10T13:47:16;15.82;;;8.35;;
72413;SDS011;60995;52.154;4.498;2023-05-10T13:49:33;17.27;;;8.93;;
72413;SDS011;60995;52.154;4.498;2023-05-10T13:51:49;13.75;;;7.68;;
72413;SDS011;60995;52.154;4.498;2023-05-10T13:54:06;18.30;;;8.30;;
72413;SDS011;60995;52.154;4.498;2023-05-10T13:56:23;16.10;;;7.63;;
72413;SDS011;60995;52.154;4.498;2023-05-10T13:58:39;17.58;;;8.50;;
72413;SDS011;60995;52.154;4.498;2023-05-10T14:00:56;16.25;;;8.00;;
72413;SDS011;60995;52.154;4.498;2023-05-10T14:03:12;11.52;;;6.53;;
72413;SDS011;60995;52.154;4.498;2023-05-10T14:05:28;13.77;;;6.45;;